createdAt,value
2018-08-07T00:00:19.575Z,3.02
2018-08-07T00:02:50.027Z,2.70
2018-08-07T00:05:19.119Z,2.85
2018-08-07T00:07:52.098Z,2.93
2018-08-07T00:10:23.360Z,3.05
2018-08-07T00:12:52.492Z,2.47
2018-08-07T00:15:23.695Z,3.35
2018-08-07T00:17:53.091Z,2.97
2018-08-07T00:20:22.075Z,3.72
2018-08-07T00:22:51.220Z,2.45
2018-08-07T00:25:20.198Z,3.20
2018-08-07T00:27:49.571Z,2.40
2018-08-07T00:30:18.575Z,4.05
2018-08-07T00:32:47.563Z,2.22
2018-08-07T00:35:17.957Z,3.15
2018-08-07T00:37:47.332Z,2.70
2018-08-07T00:40:17.258Z,3.30
2018-08-07T00:42:46.783Z,3.45
2018-08-07T00:45:17.007Z,3.20
2018-08-07T00:47:46.203Z,3.37
2018-08-07T00:50:16.884Z,3.15
2018-08-07T00:52:46.878Z,3.52
2018-08-07T00:55:16.484Z,3.27
2018-08-07T00:57:45.857Z,3.37
2018-08-07T01:00:15.084Z,2.75
2018-08-07T01:02:44.063Z,3.35
2018-08-07T01:05:14.991Z,2.62
2018-08-07T01:07:44.218Z,3.12
2018-08-07T01:10:15.012Z,2.75
2018-08-07T01:12:44.214Z,3.25
2018-08-07T01:15:16.507Z,2.50
2018-08-07T01:17:45.965Z,3.62
2018-08-07T01:20:18.332Z,2.80
2018-08-07T01:22:47.296Z,3.47
2018-08-07T01:25:20.941Z,2.95
2018-08-07T01:27:49.682Z,4.25
2018-08-07T01:30:22.188Z,3.17
2018-08-07T01:32:51.552Z,3.30
2018-08-07T01:35:20.546Z,2.83
2018-08-07T01:37:49.286Z,2.90
2018-08-07T01:40:18.095Z,3.42
2018-08-07T01:42:47.096Z,2.42
2018-08-07T01:45:16.078Z,2.85
2018-08-07T01:47:45.058Z,2.45
2018-08-07T01:50:14.422Z,3.37
2018-08-07T01:52:43.309Z,2.40
2018-08-07T01:55:21.936Z,3.47
2018-08-07T01:57:50.963Z,2.62
2018-08-07T02:00:20.379Z,3.80
2018-08-07T02:02:49.813Z,2.83
2018-08-07T02:05:18.723Z,2.98
2018-08-07T02:07:47.627Z,2.90
2018-08-07T02:10:17.787Z,3.05
2018-08-07T02:12:46.770Z,2.42
2018-08-07T02:15:16.219Z,2.95
2018-08-07T02:17:45.213Z,2.80
2018-08-07T02:20:15.349Z,2.70
2018-08-07T02:22:44.900Z,3.35
2018-08-07T02:25:16.886Z,2.30
2018-08-07T02:27:46.178Z,2.90
2018-08-07T02:30:15.799Z,2.67
2018-08-07T02:32:44.792Z,3.02
2018-08-07T02:35:14.865Z,2.90
2018-08-07T02:37:44.861Z,3.20
2018-08-07T02:40:14.558Z,2.98
2018-08-07T02:42:43.984Z,3.62
2018-08-07T02:45:14.853Z,2.58
2018-08-07T02:47:44.264Z,2.92
2018-08-07T02:50:16.128Z,3.17
2018-08-07T02:52:45.320Z,3.35
2018-08-07T02:55:14.468Z,2.70
2018-08-07T02:57:43.906Z,3.37
2018-08-07T03:00:21.751Z,2.70
2018-08-07T03:02:50.868Z,3.10
2018-08-07T03:05:20.711Z,2.72
2018-08-07T03:07:49.522Z,3.55
2018-08-07T03:10:18.126Z,2.87
2018-08-07T03:12:46.773Z,2.90
2018-08-07T03:15:20.798Z,3.45
2018-08-07T03:17:50.237Z,3.05
2018-08-07T03:20:19.120Z,3.20
2018-08-07T03:22:47.990Z,3.25
2018-08-07T03:25:16.983Z,3.52
2018-08-07T03:27:46.360Z,2.92
2018-08-07T03:30:18.011Z,3.67
2018-08-07T03:32:47.091Z,3.02
2018-08-07T03:35:15.924Z,3.60
2018-08-07T03:37:44.973Z,3.08
2018-08-07T03:40:15.696Z,3.25
2018-08-07T03:42:44.780Z,2.77
2018-08-07T03:45:17.922Z,4.40
2018-08-07T03:47:47.568Z,3.10
2018-08-07T03:50:16.511Z,4.37
2018-08-07T03:52:45.468Z,3.05
2018-08-07T03:55:17.064Z,3.67
2018-08-07T03:57:46.421Z,3.17
2018-08-07T04:00:18.194Z,3.35
2018-08-07T04:02:47.194Z,3.20
2018-08-07T04:07:55.395Z,3.50
2018-08-07T04:10:24.475Z,3.83
2018-08-07T04:12:53.440Z,3.08
2018-08-07T04:15:22.403Z,4.05
2018-08-07T04:17:51.395Z,3.08
2018-08-07T04:20:20.346Z,3.85
2018-08-07T04:22:49.364Z,3.58
2018-08-07T04:25:18.342Z,2.90
2018-08-07T04:27:47.062Z,4.35
2018-08-07T04:30:18.130Z,3.72
2018-08-07T04:32:47.384Z,4.35
2018-08-07T04:35:16.931Z,3.08
2018-08-07T04:37:46.178Z,3.52
2018-08-07T04:40:15.619Z,4.20
2018-08-07T04:42:44.634Z,3.42
2018-08-07T04:45:14.759Z,3.83
2018-08-07T04:47:44.611Z,4.12
2018-08-07T04:50:13.884Z,3.70
2018-08-07T04:52:43.348Z,3.15
2018-08-07T04:55:12.569Z,3.80
2018-08-07T04:57:41.552Z,3.60
2018-08-07T05:00:12.984Z,4.20
2018-08-07T05:02:42.208Z,3.27
2018-08-07T05:05:10.955Z,4.37
2018-08-07T05:07:40.067Z,3.35
2018-08-07T05:10:12.415Z,3.95
2018-08-07T05:12:41.854Z,3.45
2018-08-07T05:15:11.216Z,4.60
2018-08-07T05:17:41.396Z,3.17
2018-08-07T05:20:11.279Z,4.47
2018-08-07T05:22:40.709Z,3.27
2018-08-07T05:25:10.859Z,3.83
2018-08-07T05:27:40.103Z,3.30
2018-08-07T05:30:11.495Z,3.98
2018-08-07T05:32:40.103Z,3.15
2018-08-07T05:35:09.083Z,3.42
2018-08-07T05:37:37.667Z,3.52
2018-08-07T05:40:07.440Z,3.45
2018-08-07T05:42:36.494Z,3.90
2018-08-07T05:45:06.664Z,3.00
2018-08-07T05:47:35.728Z,3.80
2018-08-07T05:50:08.775Z,3.25
2018-08-07T05:52:37.779Z,3.65
2018-08-07T05:55:07.112Z,3.27
2018-08-07T05:57:36.135Z,4.08
2018-08-07T06:00:09.681Z,3.42
2018-08-07T06:02:38.744Z,3.95
2018-08-07T06:05:07.619Z,2.90
2018-08-07T06:07:36.587Z,3.52
2018-08-07T06:10:06.952Z,3.30
2018-08-07T06:12:35.975Z,3.60
2018-08-07T06:15:07.595Z,3.70
2018-08-07T06:17:36.584Z,3.50
2018-08-07T06:20:05.765Z,3.30
2018-08-07T06:22:34.495Z,3.22
2018-08-07T06:25:03.118Z,3.85
2018-08-07T06:27:32.212Z,2.92
2018-08-07T06:30:01.269Z,3.37
2018-08-07T06:32:30.012Z,3.10
2018-08-07T06:34:58.901Z,3.25
2018-08-07T06:37:27.949Z,3.40
2018-08-07T06:39:56.980Z,2.58
2018-08-07T06:42:25.997Z,3.65
2018-08-07T06:44:54.993Z,2.80
2018-08-07T06:47:23.959Z,3.98
2018-08-07T06:49:52.996Z,2.60
2018-08-07T06:52:21.967Z,4.03
2018-08-07T06:54:50.967Z,3.05
2018-08-07T06:57:19.960Z,3.30
2018-08-07T06:59:48.932Z,3.17
2018-08-07T07:02:18.063Z,3.02
2018-08-07T07:04:47.120Z,3.05
2018-08-07T07:07:16.102Z,2.55
2018-08-07T07:09:44.912Z,3.33
2018-08-07T07:12:13.804Z,2.60
2018-08-07T07:14:42.580Z,3.12
2018-08-07T07:17:11.430Z,2.30
2018-08-07T07:19:40.415Z,3.22
2018-08-07T07:22:09.688Z,2.92
2018-08-07T07:24:38.647Z,2.90
2018-08-07T07:27:07.628Z,3.52
2018-08-07T07:29:36.618Z,2.55
2018-08-07T07:32:05.651Z,3.22
2018-08-07T07:34:34.783Z,2.30
2018-08-07T07:37:03.693Z,3.00
2018-08-07T07:39:32.742Z,2.83
2018-08-07T07:42:01.780Z,3.50
2018-08-07T07:44:30.901Z,2.72
2018-08-07T07:47:00.037Z,2.80
2018-08-07T07:49:29.017Z,3.37
2018-08-07T07:51:58.027Z,2.75
2018-08-07T07:54:27.077Z,3.85
2018-08-07T07:56:56.586Z,2.60
2018-08-07T07:59:25.631Z,3.55
2018-08-07T08:01:55.540Z,2.20
2018-08-07T08:04:24.571Z,4.35
2018-08-07T08:06:53.766Z,2.10
2018-08-07T08:09:22.721Z,3.20
2018-08-07T08:11:52.904Z,2.95
2018-08-07T08:14:21.895Z,3.02
2018-08-07T08:16:51.391Z,3.17
2018-08-07T08:19:20.502Z,2.67
2018-08-07T08:21:49.491Z,3.12
2018-08-07T08:24:18.466Z,2.55
2018-08-07T08:26:47.215Z,3.22
2018-08-07T08:29:16.130Z,2.47
2018-08-07T08:31:44.794Z,3.35
2018-08-07T08:34:13.716Z,2.50
2018-08-07T08:36:42.724Z,3.13
2018-08-07T08:39:12.572Z,2.50
2018-08-07T08:41:42.092Z,2.25
2018-08-07T08:44:11.096Z,2.90
2018-08-07T08:46:40.060Z,2.02
2018-08-07T08:49:09.068Z,2.55
2018-08-07T08:51:38.040Z,2.25
2018-08-07T08:54:07.131Z,3.02
2018-08-07T08:56:35.879Z,2.12
2018-08-07T08:59:05.418Z,2.70
2018-08-07T09:01:34.487Z,1.92
2018-08-07T09:04:03.452Z,3.30
2018-08-07T09:06:32.281Z,2.52
2018-08-07T09:09:00.948Z,2.30
2018-08-07T09:11:30.513Z,2.60
2018-08-07T09:13:59.584Z,2.23
2018-08-07T09:16:29.516Z,3.15
2018-08-07T09:18:58.578Z,2.22
2018-08-07T09:21:27.861Z,3.30
2018-08-07T09:23:56.916Z,2.40
2018-08-07T09:26:26.784Z,3.70
2018-08-07T09:28:55.824Z,2.10
2018-08-07T09:31:25.007Z,2.97
2018-08-07T09:33:53.996Z,3.10
2018-08-07T09:36:23.001Z,3.22
2018-08-07T09:38:51.982Z,3.20
2018-08-07T09:41:21.087Z,2.15
2018-08-07T09:43:50.075Z,3.22
2018-08-07T09:46:19.101Z,2.30
2018-08-07T09:48:48.160Z,3.37
2018-08-07T09:51:16.899Z,2.83
2018-08-07T09:53:45.758Z,2.62
2018-08-07T09:56:14.503Z,2.75
2018-08-07T09:58:43.379Z,2.08
2018-08-07T10:01:19.666Z,3.15
2018-08-07T10:03:48.664Z,2.40
2018-08-07T10:06:17.646Z,2.58
2018-08-07T10:08:46.384Z,2.37
2018-08-07T10:11:15.279Z,2.98
2018-08-07T10:13:44.272Z,2.33
2018-08-07T10:16:13.280Z,2.65
2018-08-07T10:18:42.305Z,2.30
2018-08-07T10:21:11.309Z,2.63
2018-08-07T10:23:40.279Z,2.37
2018-08-07T10:26:09.422Z,2.60
2018-08-07T10:28:38.416Z,2.90
2018-08-07T10:31:07.428Z,2.15
2018-08-07T10:33:36.393Z,2.87
2018-08-07T10:36:05.399Z,2.17
2018-08-07T10:38:34.408Z,2.77
2018-08-07T10:41:03.542Z,1.90
2018-08-07T10:43:32.425Z,2.72
2018-08-07T10:46:01.448Z,2.15
2018-08-07T10:48:30.503Z,2.83
2018-08-07T10:50:59.554Z,2.65
2018-08-07T10:53:28.615Z,2.47
2018-08-07T10:55:57.668Z,2.67
2018-08-07T10:58:26.741Z,2.42
2018-08-07T11:00:55.730Z,2.87
2018-08-07T11:03:24.672Z,2.35
2018-08-07T11:05:53.728Z,2.98
2018-08-07T11:08:22.627Z,2.20
2018-08-07T11:10:51.613Z,2.80
2018-08-07T11:13:21.020Z,2.30
2018-08-07T11:15:49.889Z,2.45
2018-08-07T11:18:19.304Z,2.95
2018-08-07T11:20:48.357Z,2.45
2018-08-07T11:23:17.363Z,3.20
2018-08-07T11:25:46.396Z,2.42
2018-08-07T11:28:16.277Z,3.05
2018-08-07T11:30:45.034Z,2.10
2018-08-07T11:33:13.884Z,3.20
2018-08-07T11:35:42.891Z,1.95
2018-08-07T11:38:11.898Z,2.45
2018-08-07T11:40:40.848Z,2.60
2018-08-07T11:43:09.872Z,3.27
2018-08-07T11:45:38.876Z,3.45
2018-08-07T11:48:07.950Z,2.40
2018-08-07T11:50:36.852Z,3.20
2018-08-07T11:53:05.888Z,2.77
2018-08-07T11:55:34.826Z,2.85
2018-08-07T11:58:03.858Z,2.15
2018-08-07T12:00:39.617Z,2.98
2018-08-07T12:03:10.205Z,3.05
2018-08-07T12:05:39.204Z,3.02
2018-08-07T12:08:08.642Z,2.42
2018-08-07T12:10:37.534Z,3.12
2018-08-07T12:13:06.592Z,2.87
2018-08-07T12:15:35.606Z,2.85
2018-08-07T12:18:04.633Z,2.62
2018-08-07T12:20:33.353Z,2.15
2018-08-07T12:23:01.988Z,3.05
2018-08-07T12:25:31.013Z,1.98
2018-08-07T12:28:00.069Z,3.05
2018-08-07T12:30:30.260Z,2.33
2018-08-07T12:32:59.621Z,3.53
2018-08-07T12:35:29.022Z,2.20
2018-08-07T12:37:57.935Z,2.70
2018-08-07T12:40:28.616Z,3.12
2018-08-07T12:43:00.060Z,3.05
2018-08-07T12:45:29.957Z,2.33
2018-08-07T12:47:59.212Z,2.98
2018-08-07T12:50:28.308Z,2.80
2018-08-07T12:52:57.381Z,3.15
2018-08-07T12:55:26.495Z,3.17
2018-08-07T12:57:55.456Z,2.40
2018-08-07T13:00:27.852Z,3.15
2018-08-07T13:02:57.032Z,2.37
2018-08-07T13:05:26.783Z,3.15
2018-08-07T13:07:55.804Z,2.45
2018-08-07T13:10:25.533Z,3.35
2018-08-07T13:12:55.504Z,2.85
2018-08-07T13:15:24.538Z,3.40
2018-08-07T13:17:53.537Z,2.10
2018-08-07T13:20:22.504Z,2.87
2018-08-07T13:22:51.283Z,2.83
2018-08-07T13:25:21.391Z,2.70
2018-08-07T13:27:50.412Z,2.83
2018-08-07T13:30:21.848Z,2.77
2018-08-07T13:32:50.972Z,2.77
2018-08-07T13:35:20.028Z,2.30
2018-08-07T13:37:49.987Z,3.35
2018-08-07T13:40:20.266Z,4.05
2018-08-07T13:42:49.319Z,3.30
2018-08-07T13:45:20.476Z,2.50
2018-08-07T13:47:49.448Z,3.30
2018-08-07T13:50:20.776Z,2.95
2018-08-07T13:52:50.446Z,3.72
2018-08-07T13:55:20.584Z,2.47
2018-08-07T13:57:49.523Z,3.25
2018-08-07T14:00:22.300Z,3.60
2018-08-07T14:02:52.114Z,3.70
2018-08-07T14:05:21.859Z,2.72
2018-08-07T14:07:51.627Z,3.17
2018-08-07T14:10:21.796Z,6.28
2018-08-07T14:12:50.850Z,3.17
2018-08-07T14:15:20.780Z,3.58
2018-08-07T14:17:49.779Z,2.65
2018-08-07T14:20:19.275Z,3.60
2018-08-07T14:22:48.422Z,3.10
2018-08-07T14:25:18.799Z,3.80
2018-08-07T14:27:47.800Z,2.90
2018-08-07T14:30:20.148Z,3.92
2018-08-07T14:32:49.583Z,3.30
2018-08-07T14:35:18.589Z,4.10
2018-08-07T14:37:48.266Z,3.05
2018-08-07T14:40:18.529Z,4.60
2018-08-07T14:42:48.646Z,2.92
2018-08-07T14:45:18.233Z,3.62
2018-08-07T14:47:47.671Z,3.30
2018-08-07T14:50:19.607Z,3.35
2018-08-07T14:52:48.574Z,3.45
2018-08-07T14:55:17.595Z,3.42
2018-08-07T14:57:46.739Z,3.37
2018-08-07T15:00:18.948Z,3.15
2018-08-07T15:02:48.049Z,3.55
2018-08-07T15:05:16.964Z,3.52
2018-08-07T15:07:46.984Z,3.77
2018-08-07T15:10:17.499Z,3.25
2018-08-07T15:12:46.315Z,4.33
2018-08-07T15:15:20.211Z,3.58
2018-08-07T15:17:49.259Z,4.20
2018-08-07T15:20:19.943Z,3.42
2018-08-07T15:22:50.055Z,4.15
2018-08-07T15:25:19.902Z,3.83
2018-08-07T15:27:48.986Z,4.02
2018-08-07T15:30:18.500Z,3.43
2018-08-07T15:32:48.111Z,4.70
2018-08-07T15:35:17.858Z,3.30
2018-08-07T15:37:47.010Z,3.67
2018-08-07T15:40:16.620Z,5.30
2018-08-07T15:42:46.025Z,3.60
2018-08-07T15:45:16.624Z,4.17
2018-08-07T15:47:45.641Z,3.15
2018-08-07T15:50:15.736Z,4.00
2018-08-07T15:52:46.005Z,6.90
2018-08-07T15:55:16.068Z,7.12
2018-08-07T15:57:45.110Z,5.42
2018-08-07T16:00:20.337Z,7.53
2018-08-07T16:02:49.275Z,3.77
2018-08-07T16:05:18.540Z,4.60
2018-08-07T16:07:48.176Z,4.33
2018-08-07T16:10:18.570Z,4.48
2018-08-07T16:12:48.665Z,3.40
2018-08-07T16:15:17.643Z,5.07
2018-08-07T16:17:47.480Z,3.40
2018-08-07T16:20:16.289Z,4.42
2018-08-07T16:22:44.907Z,3.60
2018-08-07T16:25:15.165Z,4.62
2018-08-07T16:27:45.222Z,3.83
2018-08-07T16:30:21.425Z,4.26
2018-08-07T16:32:50.984Z,3.12
2018-08-07T16:35:20.023Z,5.08
2018-08-07T16:37:49.488Z,3.60
2018-08-07T16:40:20.140Z,6.83
2018-08-07T16:42:49.908Z,2.98
2018-08-07T16:45:20.079Z,4.28
2018-08-07T16:47:49.226Z,3.33
2018-08-07T16:50:19.454Z,4.30
2018-08-07T16:52:49.348Z,4.50
2018-08-07T16:55:18.381Z,4.00
2018-08-07T16:57:47.141Z,4.07
2018-08-07T17:00:16.051Z,3.80
2018-08-07T17:02:45.044Z,5.03
2018-08-07T17:05:15.215Z,4.00
2018-08-07T17:07:44.666Z,4.55
2018-08-07T17:10:19.255Z,3.50
2018-08-07T17:12:49.224Z,4.67
2018-08-07T17:15:18.641Z,3.60
2018-08-07T17:17:47.696Z,4.70
2018-08-07T17:20:17.908Z,3.40
2018-08-07T17:22:47.365Z,5.17
2018-08-07T17:25:17.659Z,4.22
2018-08-07T17:27:47.409Z,4.85
2018-08-07T17:30:19.185Z,3.97
2018-08-07T17:32:48.396Z,4.58
2018-08-07T17:35:19.263Z,4.12
2018-08-07T17:37:49.339Z,4.08
2018-08-07T17:40:19.835Z,5.12
2018-08-07T17:42:48.867Z,4.17
2018-08-07T17:45:18.799Z,4.87
2018-08-07T17:47:47.998Z,3.92
2018-08-07T17:50:18.365Z,4.70
2018-08-07T17:52:47.481Z,4.17
2018-08-07T17:55:16.784Z,4.60
2018-08-07T17:57:45.792Z,4.00
2018-08-07T18:00:17.046Z,4.80
2018-08-07T18:02:46.879Z,4.50
2018-08-07T18:05:16.259Z,4.85
2018-08-07T18:07:47.024Z,4.33
2018-08-07T18:10:17.432Z,4.87
2018-08-07T18:12:46.510Z,4.35
2018-08-07T18:15:16.895Z,4.75
2018-08-07T18:17:46.072Z,4.10
2018-08-07T18:20:20.141Z,4.70
2018-08-07T18:22:49.200Z,4.40
2018-08-07T18:25:18.275Z,4.75
2018-08-07T18:27:47.317Z,4.58
2018-08-07T18:30:18.315Z,5.07
2018-08-07T18:32:47.445Z,4.55
2018-08-07T18:35:18.853Z,4.47
2018-08-07T18:37:49.008Z,4.67
2018-08-07T18:40:18.153Z,6.28
2018-08-07T18:42:47.183Z,5.55
2018-08-07T18:45:16.637Z,4.40
2018-08-07T18:47:46.128Z,5.17
2018-08-07T18:50:20.636Z,4.22
2018-08-07T18:52:49.710Z,5.10
2018-08-07T18:55:18.820Z,5.00
2018-08-07T18:57:49.092Z,5.20
2018-08-07T19:00:19.384Z,4.80
2018-08-07T19:02:48.048Z,5.30
2018-08-07T19:05:17.441Z,4.60
2018-08-07T19:07:46.362Z,5.53
2018-08-07T19:10:15.901Z,5.07
2018-08-07T19:12:45.876Z,5.73
2018-08-07T19:15:16.135Z,5.20
2018-08-07T19:17:45.218Z,4.55
2018-08-07T19:20:15.319Z,5.97
2018-08-07T19:22:44.202Z,5.17
2018-08-07T19:25:13.548Z,5.87
2018-08-07T19:27:42.647Z,4.97
2018-08-07T19:30:13.318Z,6.20
2018-08-07T19:32:42.458Z,5.03
2018-08-07T19:35:12.648Z,5.72
2018-08-07T19:37:41.437Z,5.40
2018-08-07T19:40:12.512Z,6.62
2018-08-07T19:42:41.319Z,5.47
2018-08-07T19:45:11.313Z,5.42
2018-08-07T19:47:40.450Z,4.42
2018-08-07T19:50:10.539Z,4.90
2018-08-07T19:52:39.521Z,4.95
2018-08-07T19:55:13.820Z,4.70
2018-08-07T19:57:42.904Z,4.10
2018-08-07T20:00:20.656Z,4.30
2018-08-07T20:02:50.111Z,3.90
2018-08-07T20:05:19.048Z,4.97
2018-08-07T20:07:48.107Z,3.83
2018-08-07T20:10:17.932Z,5.13
2018-08-07T20:12:47.070Z,4.62
2018-08-07T20:15:18.024Z,5.47
2018-08-07T20:17:47.513Z,4.50
2018-08-07T20:20:16.892Z,4.05
2018-08-07T20:22:45.952Z,4.50
2018-08-07T20:25:15.084Z,4.25
2018-08-07T20:27:44.099Z,4.62
2018-08-07T20:30:15.606Z,4.15
2018-08-07T20:32:45.436Z,4.70
2018-08-07T20:35:15.180Z,4.13
2018-08-07T20:37:45.050Z,4.66
2018-08-07T20:40:19.805Z,4.80
2018-08-07T20:42:48.643Z,5.12
2018-08-07T20:45:18.312Z,4.05
2018-08-07T20:47:47.328Z,5.05
2018-08-07T20:50:21.335Z,4.33
2018-08-07T20:52:50.407Z,4.83
2018-08-07T20:55:19.169Z,4.43
2018-08-07T20:57:48.088Z,4.80
2018-08-07T21:00:23.291Z,3.80
2018-08-07T21:02:52.342Z,4.55
2018-08-07T21:05:21.660Z,4.55
2018-08-07T21:07:50.908Z,4.47
2018-08-07T21:10:21.944Z,4.25
2018-08-07T21:12:51.093Z,4.78
2018-08-07T21:15:19.845Z,4.47
2018-08-07T21:17:48.791Z,4.97
2018-08-07T21:20:19.476Z,6.05
2018-08-07T21:22:48.789Z,4.35
2018-08-07T21:25:18.375Z,5.83
2018-08-07T21:27:48.336Z,4.40
2018-08-07T21:30:21.851Z,5.90
2018-08-07T21:32:52.048Z,5.12
2018-08-07T21:35:21.152Z,5.70
2018-08-07T21:37:50.099Z,4.60
2018-08-07T21:40:20.441Z,5.62
2018-08-07T21:42:50.447Z,5.10
2018-08-07T21:45:19.575Z,6.15
2018-08-07T21:47:49.291Z,4.53
2018-08-07T21:50:20.770Z,5.27
2018-08-07T21:52:49.656Z,4.87
2018-08-07T21:55:19.592Z,6.20
2018-08-07T21:57:48.566Z,4.85
2018-08-07T22:00:55.492Z,5.75
2018-08-07T22:03:24.262Z,5.47
2018-08-07T22:05:53.202Z,5.92
2018-08-07T22:08:22.180Z,5.65
2018-08-07T22:10:51.187Z,5.17
2018-08-07T22:13:19.943Z,5.47
2018-08-07T22:15:48.949Z,5.20
2018-08-07T22:18:18.032Z,5.70
2018-08-07T22:20:48.548Z,5.03
2018-08-07T22:23:17.932Z,5.58
2018-08-07T22:25:47.010Z,5.12
2018-08-07T22:28:16.032Z,6.50
2018-08-07T22:30:45.104Z,5.30
2018-08-07T22:33:14.172Z,5.62
2018-08-07T22:35:43.239Z,5.80
2018-08-07T22:38:12.239Z,5.83
2018-08-07T22:40:41.233Z,5.77
2018-08-07T22:43:10.341Z,5.65
2018-08-07T22:45:39.013Z,6.40
2018-08-07T22:48:08.711Z,4.90
2018-08-07T22:50:37.753Z,6.37
2018-08-07T22:53:06.786Z,5.62
2018-08-07T22:55:35.803Z,6.08
2018-08-07T22:58:05.032Z,5.97
2018-08-07T23:00:33.988Z,6.03
2018-08-07T23:03:02.985Z,6.83
2018-08-07T23:05:31.967Z,5.53
2018-08-07T23:08:00.937Z,6.50
2018-08-07T23:10:29.895Z,5.72
2018-08-07T23:12:58.923Z,6.70
2018-08-07T23:15:27.652Z,5.87
2018-08-07T23:17:56.544Z,6.83
2018-08-07T23:20:26.089Z,5.53
2018-08-07T23:22:56.175Z,5.90
2018-08-07T23:25:25.135Z,5.90
2018-08-07T23:27:54.162Z,5.42
2018-08-07T23:30:23.411Z,5.87
2018-08-07T23:32:52.505Z,5.08
2018-08-07T23:35:21.545Z,6.25
2018-08-07T23:37:50.507Z,4.67
2018-08-07T23:40:19.555Z,5.78
2018-08-07T23:42:48.584Z,5.30
2018-08-07T23:45:17.587Z,6.72
2018-08-07T23:47:48.684Z,4.95
2018-08-07T23:50:17.752Z,6.70
2018-08-07T23:52:46.790Z,5.42
2018-08-07T23:55:15.850Z,5.67
2018-08-07T23:57:44.879Z,6.20
